Time;durP1;ratioP1;P1;durP2;ratioP2;P2;SDS_P1;SDS_P2;PMS_P1;PMS_P2;Temp;Humidity;BMP_temperature;BMP_pressure;BME280_temperature;BME280_humidity;BME280_pressure;Samples;Min_cycle;Max_cycle;Signal;HPM_P1;HPM_P2
2022/05/01 00:00:15;;;;;;;1999.90;999.90;;;11.50;99.90;;;;;;5083510;28;20522;-67
2022/05/01 00:02:41;;;;;;;1999.90;999.90;;;11.40;99.90;;;;;;5088509;28;20471;-67
2022/05/01 00:05:08;;;;;;;1999.90;999.90;;;11.50;99.90;;;;;;5072460;28;20617;-67
2022/05/01 00:07:36;;;;;;;1999.90;999.90;;;11.40;99.90;;;;;;5089265;28;20537;-67
2022/05/01 00:10:04;;;;;;;1999.90;999.90;;;11.40;99.90;;;;;;5077330;28;20455;-67
2022/05/01 00:12:31;;;;;;;1999.90;999.90;;;11.50;99.90;;;;;;5090960;28;20448;-67
2022/05/01 00:14:58;;;;;;;1999.90;999.90;;;11.40;99.90;;;;;;5095807;22;20496;-65
2022/05/01 00:17:25;;;;;;;1999.90;999.90;;;11.40;99.90;;;;;;5117757;27;20471;-68
2022/05/01 00:19:52;;;;;;;1999.90;999.90;;;11.40;99.90;;;;;;5108393;27;20513;-68
2022/05/01 00:22:19;;;;;;;1999.90;999.90;;;11.30;99.90;;;;;;5098965;28;20440;-69
2022/05/01 00:24:45;;;;;;;1999.90;999.90;;;11.30;99.90;;;;;;5099476;28;20814;-69
2022/05/01 00:27:14;;;;;;;1999.90;999.90;;;11.30;99.90;;;;;;5085508;28;20452;-69
2022/05/01 00:29:41;;;;;;;1999.90;999.90;;;11.20;99.90;;;;;;5087765;28;20464;-67
2022/05/01 00:32:08;;;;;;;1999.90;999.90;;;11.20;99.90;;;;;;5085064;28;20445;-69
2022/05/01 00:37:19;;;;;;;1999.90;999.90;;;11.00;99.90;;;;;;5090858;28;20419;-68
2022/05/01 00:39:46;;;;;;;1999.90;999.90;;;11.10;99.90;;;;;;5090219;28;20491;-69
2022/05/01 00:42:16;;;;;;;1999.90;999.90;;;10.90;99.90;;;;;;5084562;28;20445;-69
2022/05/01 00:44:43;;;;;;;1999.90;999.90;;;10.90;99.90;;;;;;5087681;28;20464;-69
2022/05/01 00:47:09;;;;;;;1999.90;999.90;;;11.00;99.90;;;;;;5080253;28;20863;-69
2022/05/01 00:49:36;;;;;;;1999.90;999.90;;;11.00;99.90;;;;;;5079234;28;20529;-69
2022/05/01 00:52:08;;;;;;;1999.90;999.90;;;11.00;99.90;;;;;;5081906;28;20473;-68
2022/05/01 00:54:37;;;;;;;1999.90;999.90;;;11.00;99.90;;;;;;5087100;28;20468;-69
2022/05/01 00:57:06;;;;;;;1999.90;999.90;;;10.90;99.90;;;;;;5078470;28;20462;-68
2022/05/01 00:59:35;;;;;;;1999.90;999.90;;;10.90;99.90;;;;;;5087423;28;21070;-69
2022/05/01 01:02:03;;;;;;;1999.90;999.90;;;10.80;99.90;;;;;;5078902;28;20438;-68
2022/05/01 01:04:29;;;;;;;1999.90;999.90;;;10.80;99.90;;;;;;5074752;28;20514;-69
2022/05/01 01:06:56;;;;;;;1999.90;999.90;;;10.70;99.90;;;;;;5077851;28;20461;-69
2022/05/01 01:09:23;;;;;;;1999.90;999.90;;;10.60;99.90;;;;;;5073288;28;20488;-68
2022/05/01 01:12:53;;;;;;;1999.90;999.90;;;10.60;99.90;;;;;;5081188;28;20445;-69
2022/05/01 01:14:40;;;;;;;1999.90;999.90;;;10.70;99.90;;;;;;5079668;28;20455;-69
2022/05/01 01:17:07;;;;;;;1999.90;999.90;;;10.70;99.90;;;;;;5090102;28;20479;-69
2022/05/01 01:19:33;;;;;;;1999.90;999.90;;;10.70;99.90;;;;;;5081615;28;20444;-69
2022/05/01 01:22:03;;;;;;;1999.90;999.90;;;10.70;99.90;;;;;;5084185;28;20902;-66
2022/05/01 01:24:30;;;;;;;1999.90;999.90;;;10.60;99.90;;;;;;5089551;28;21216;-68
2022/05/01 01:26:57;;;;;;;1999.90;999.90;;;10.60;99.90;;;;;;5084662;28;20530;-69
2022/05/01 01:32:12;;;;;;;1999.90;999.90;;;10.60;99.90;;;;;;5083440;28;20453;-69
2022/05/01 01:34:39;;;;;;;1999.90;999.90;;;10.60;99.90;;;;;;5088967;28;20445;-69
2022/05/01 01:37:08;;;;;;;1999.90;999.90;;;10.60;99.90;;;;;;5083401;28;20493;-69
2022/05/01 01:39:35;;;;;;;1999.90;999.90;;;10.60;99.90;;;;;;5078098;28;20442;-69
2022/05/01 01:42:05;;;;;;;1999.90;999.90;;;10.60;99.90;;;;;;5082031;28;20955;-68
2022/05/01 01:44:34;;;;;;;1999.90;999.90;;;10.60;99.90;;;;;;5090104;28;20471;-69
2022/05/01 01:47:01;;;;;;;1999.90;999.90;;;10.60;99.90;;;;;;5086747;28;20481;-69
2022/05/01 01:49:28;;;;;;;1999.90;999.90;;;10.60;99.90;;;;;;5082034;28;21122;-69
2022/05/01 01:51:54;;;;;;;1999.90;999.90;;;10.50;99.90;;;;;;5084793;28;20461;-68
2022/05/01 01:54:22;;;;;;;1999.90;999.90;;;10.50;99.90;;;;;;5089455;28;20505;-68
2022/05/01 01:56:49;;;;;;;1999.90;999.90;;;10.50;99.90;;;;;;5089801;28;20485;-69
2022/05/01 01:59:15;;;;;;;1999.90;999.90;;;10.50;99.90;;;;;;5088278;28;20928;-69
2022/05/01 02:01:43;;;;;;;1999.90;999.90;;;10.50;99.90;;;;;;5090243;28;20529;-69
2022/05/01 02:04:10;;;;;;;1999.90;999.90;;;10.50;99.90;;;;;;5088100;28;20440;-68
2022/05/01 02:06:37;;;;;;;1999.90;999.90;;;10.60;99.90;;;;;;5091330;28;20486;-69
2022/05/01 02:09:06;;;;;;;1999.90;999.90;;;10.60;99.90;;;;;;5087148;28;20544;-68
2022/05/01 02:11:35;;;;;;;1999.90;999.90;;;10.50;99.90;;;;;;5091996;28;20509;-67
2022/05/01 02:14:01;;;;;;;1999.90;999.90;;;10.50;99.90;;;;;;5085282;28;20502;-69
2022/05/01 02:16:29;;;;;;;1999.90;999.90;;;10.50;99.90;;;;;;5084431;28;20507;-69
2022/05/01 02:18:56;;;;;;;1999.90;999.90;;;10.60;99.90;;;;;;5082708;28;20511;-69
2022/05/01 02:21:37;;;;;;;1999.90;999.90;;;10.50;99.90;;;;;;5080581;28;20472;-69
2022/05/01 02:24:08;;;;;;;1999.90;999.90;;;10.50;99.90;;;;;;5081074;28;20949;-68
2022/05/01 02:26:37;;;;;;;1999.90;999.90;;;10.50;99.90;;;;;;5082224;28;20510;-69
2022/05/01 02:29:09;;;;;;;1999.90;999.90;;;10.40;99.90;;;;;;5085756;28;20867;-69
2022/05/01 02:31:37;;;;;;;1999.90;999.90;;;10.40;99.90;;;;;;5093134;28;20944;-68
2022/05/01 02:34:04;;;;;;;1999.90;999.90;;;10.30;99.90;;;;;;5085835;28;20494;-67
2022/05/01 02:36:31;;;;;;;1999.90;999.90;;;10.20;99.90;;;;;;5091391;28;20534;-69
2022/05/01 02:38:57;;;;;;;1999.90;999.90;;;10.30;99.90;;;;;;5081517;28;20960;-69
2022/05/01 02:41:24;;;;;;;1999.90;999.90;;;10.30;99.90;;;;;;5079938;28;20461;-69
2022/05/01 02:43:52;;;;;;;1999.90;999.90;;;10.40;99.90;;;;;;5081890;28;20471;-69
2022/05/01 02:46:19;;;;;;;1999.90;999.90;;;10.40;99.90;;;;;;5077767;28;20480;-69
2022/05/01 02:48:46;;;;;;;1999.90;999.90;;;10.40;99.90;;;;;;5083124;28;21018;-68
2022/05/01 02:51:12;;;;;;;1999.90;999.90;;;10.40;99.90;;;;;;5075120;28;20482;-69
2022/05/01 02:53:39;;;;;;;1999.90;999.90;;;10.50;99.90;;;;;;5084008;28;20450;-69
2022/05/01 02:56:06;;;;;;;1999.90;999.90;;;10.50;99.90;;;;;;5092015;28;20472;-69
2022/05/01 02:58:33;;;;;;;1999.90;999.90;;;10.40;99.90;;;;;;5082826;28;20440;-69
2022/05/01 03:01:01;;;;;;;1999.90;999.90;;;10.30;99.90;;;;;;5082729;28;20452;-66
2022/05/01 03:03:28;;;;;;;1999.90;999.90;;;10.20;99.90;;;;;;5081841;28;20532;-69
2022/05/01 03:05:57;;;;;;;1999.90;999.90;;;10.20;99.90;;;;;;5092550;28;20517;-69
2022/05/01 03:08:24;;;;;;;1999.90;999.90;;;10.20;99.90;;;;;;5084127;28;20488;-69
2022/05/01 03:10:51;;;;;;;1999.90;999.90;;;10.30;99.90;;;;;;5083562;28;21009;-68
2022/05/01 03:13:18;;;;;;;1999.90;999.90;;;10.40;99.90;;;;;;5080434;28;20623;-69
2022/05/01 03:15:45;;;;;;;1999.90;999.90;;;10.40;99.90;;;;;;5091261;28;21042;-69
2022/05/01 03:23:42;;;;;;;1999.90;999.90;;;10.40;99.90;;;;;;5081840;28;20447;-68
2022/05/01 03:26:08;;;;;;;1999.90;999.90;;;10.50;99.90;;;;;;5092371;28;20472;-68
2022/05/01 03:28:35;;;;;;;1999.90;999.90;;;10.50;99.90;;;;;;5083106;28;20542;-69
2022/05/01 03:31:03;;;;;;;1999.90;999.90;;;10.50;99.90;;;;;;5092014;28;20457;-66
2022/05/01 03:33:32;;;;;;;1999.90;999.90;;;10.40;99.90;;;;;;5083416;28;20461;-69
2022/05/01 03:35:58;;;;;;;1999.90;999.90;;;10.30;99.90;;;;;;5091955;28;20838;-69
2022/05/01 03:38:25;;;;;;;1999.90;999.90;;;10.40;99.90;;;;;;5090918;28;20540;-69
2022/05/01 03:40:52;;;;;;;1999.90;999.90;;;10.30;99.90;;;;;;5071657;28;21014;-69
2022/05/01 03:43:19;;;;;;;1999.90;999.90;;;10.30;99.90;;;;;;5086418;28;20461;-69
2022/05/01 03:45:46;;;;;;;1999.90;999.90;;;10.40;99.90;;;;;;5079391;28;20488;-69
2022/05/01 03:48:12;;;;;;;1999.90;999.90;;;10.40;99.90;;;;;;5085063;28;20460;-69
2022/05/01 03:50:41;;;;;;;1999.90;999.90;;;10.30;99.90;;;;;;5081627;28;20527;-69
2022/05/01 03:53:07;;;;;;;1999.90;999.90;;;10.30;99.90;;;;;;5073684;28;20465;-69
2022/05/01 03:55:36;;;;;;;1999.90;999.90;;;10.30;99.90;;;;;;5082541;28;20461;-69
2022/05/01 03:58:03;;;;;;;1999.90;999.90;;;10.30;99.90;;;;;;5091922;28;20459;-68
2022/05/01 04:00:30;;;;;;;1999.90;999.90;;;10.20;99.90;;;;;;5086996;28;20441;-69
2022/05/01 04:02:57;;;;;;;1999.90;999.90;;;10.30;99.90;;;;;;5090029;28;20510;-69
2022/05/01 04:05:24;;;;;;;1999.90;999.90;;;10.20;99.90;;;;;;5083090;28;20465;-68
2022/05/01 04:07:52;;;;;;;1999.90;999.90;;;10.20;99.90;;;;;;5071366;28;20507;-69
2022/05/01 04:10:18;;;;;;;1999.90;999.90;;;10.10;99.90;;;;;;5083605;28;20477;-68
2022/05/01 04:12:46;;;;;;;1999.90;999.90;;;10.10;99.90;;;;;;5088872;28;20498;-66
2022/05/01 04:15:14;;;;;;;1999.90;999.90;;;10.20;99.90;;;;;;5084062;28;20514;-68
2022/05/01 04:17:42;;;;;;;1999.90;999.90;;;10.10;99.90;;;;;;5090659;28;20891;-69
2022/05/01 04:20:11;;;;;;;1999.90;999.90;;;10.30;99.90;;;;;;5084452;28;20487;-68
2022/05/01 04:22:39;;;;;;;1999.90;999.90;;;10.30;99.90;;;;;;5088274;28;20436;-69
2022/05/01 04:25:15;;;;;;;1999.90;999.90;;;10.20;99.90;;;;;;5080658;28;20983;-69
2022/05/01 04:27:42;;;;;;;1999.90;999.90;;;10.20;99.90;;;;;;5090752;28;20521;-69
2022/05/01 04:30:11;;;;;;;1999.90;999.90;;;10.10;99.90;;;;;;5083095;28;21033;-69
2022/05/01 04:32:48;;;;;;;1999.90;999.90;;;9.90;99.90;;;;;;5074272;28;20502;-69
2022/05/01 04:35:25;;;;;;;1999.90;999.90;;;9.90;99.90;;;;;;5082049;28;20480;-69
2022/05/01 04:37:52;;;;;;;1999.90;999.90;;;10.00;99.90;;;;;;5087241;28;20981;-69
2022/05/01 04:40:21;;;;;;;1999.90;999.90;;;10.00;99.90;;;;;;5091676;28;20471;-68
2022/05/01 04:42:47;;;;;;;1999.90;999.90;;;10.10;99.90;;;;;;5091844;28;21001;-68
2022/05/01 04:45:14;;;;;;;1999.90;999.90;;;10.00;99.90;;;;;;5083316;28;20563;-68
2022/05/01 04:47:41;;;;;;;1999.90;999.90;;;10.00;99.90;;;;;;5074115;28;20945;-69
2022/05/01 04:50:09;;;;;;;1999.90;999.90;;;10.10;99.90;;;;;;5079199;28;20481;-69
2022/05/01 04:52:37;;;;;;;1999.90;999.90;;;10.30;99.90;;;;;;5074263;28;20452;-68
2022/05/01 04:55:05;;;;;;;1999.90;999.90;;;10.40;99.90;;;;;;5081209;28;20468;-69
2022/05/01 04:57:33;;;;;;;1999.90;999.90;;;10.40;99.90;;;;;;5089400;28;20448;-67
2022/05/01 05:00:01;;;;;;;1999.90;999.90;;;10.40;99.90;;;;;;5087556;28;20453;-69
2022/05/01 05:02:36;;;;;;;1999.90;999.90;;;10.40;99.90;;;;;;5087803;28;20449;-69
2022/05/01 05:05:03;;;;;;;1999.90;999.90;;;10.40;99.90;;;;;;5091286;28;20495;-69
2022/05/01 05:07:30;;;;;;;1999.90;999.90;;;10.60;99.90;;;;;;5075392;28;20503;-68
2022/05/01 05:09:56;;;;;;;1999.90;999.90;;;10.50;99.90;;;;;;5079884;28;20594;-69
2022/05/01 05:12:23;;;;;;;1999.90;999.90;;;10.40;99.90;;;;;;5079976;28;20437;-68
2022/05/01 05:14:54;;;;;;;1999.90;999.90;;;10.30;99.90;;;;;;5089499;28;20202;-66
2022/05/01 05:17:22;;;;;;;1999.90;999.90;;;10.30;99.90;;;;;;5083402;28;20452;-68
2022/05/01 05:19:49;;;;;;;1999.90;999.90;;;10.20;99.90;;;;;;5092387;28;20504;-68
2022/05/01 05:22:16;;;;;;;1999.90;999.90;;;10.30;99.90;;;;;;5086776;28;20924;-69
2022/05/01 05:24:43;;;;;;;1999.90;999.90;;;10.40;99.90;;;;;;5095125;28;20468;-67
2022/05/01 05:27:10;;;;;;;1999.90;999.90;;;10.40;99.90;;;;;;5087658;28;20472;-69
2022/05/01 05:29:37;;;;;;;1999.90;999.90;;;10.40;99.90;;;;;;5093541;28;20488;-69
2022/05/01 05:32:07;;;;;;;1999.90;999.90;;;10.40;99.90;;;;;;5084108;28;20451;-68
2022/05/01 05:34:34;;;;;;;1999.90;999.90;;;10.30;99.90;;;;;;5081680;28;20463;-68
2022/05/01 05:37:01;;;;;;;1999.90;999.90;;;10.30;99.90;;;;;;5084179;28;20457;-68
2022/05/01 05:39:27;;;;;;;1999.90;999.90;;;10.40;99.90;;;;;;5079486;28;20510;-69
2022/05/01 05:41:54;;;;;;;1999.90;999.90;;;10.40;99.90;;;;;;5084164;28;20441;-69
2022/05/01 05:44:20;;;;;;;1999.90;999.90;;;10.50;99.90;;;;;;5083567;28;20819;-69
2022/05/01 05:46:47;;;;;;;1999.90;999.90;;;10.50;99.90;;;;;;5085884;28;20525;-68
2022/05/01 05:49:15;;;;;;;1999.90;999.90;;;10.60;99.90;;;;;;5095098;28;20912;-69
2022/05/01 05:51:42;;;;;;;1999.90;999.90;;;10.50;99.90;;;;;;5087322;28;20440;-68
2022/05/01 05:54:08;;;;;;;1999.90;999.90;;;10.50;99.90;;;;;;5094299;28;20490;-69
2022/05/01 05:56:35;;;;;;;1999.90;999.90;;;10.40;99.90;;;;;;5086381;28;20465;-69
2022/05/01 05:59:02;;;;;;;1999.90;999.90;;;10.40;99.90;;;;;;5079786;28;20514;-68
2022/05/01 06:01:28;;;;;;;1999.90;999.90;;;10.50;99.90;;;;;;5087196;28;20444;-68
2022/05/01 06:03:55;;;;;;;1999.90;999.90;;;10.50;99.90;;;;;;5079234;28;20464;-69
2022/05/01 06:06:23;;;;;;;1999.90;999.90;;;10.60;99.90;;;;;;5106971;28;20471;-68
2022/05/01 06:08:49;;;;;;;1999.90;999.90;;;10.60;99.90;;;;;;5105396;28;20762;-68
2022/05/01 06:11:16;;;;;;;1999.90;999.90;;;10.60;99.90;;;;;;5103692;28;20445;-69
2022/05/01 06:13:43;;;;;;;1999.90;999.90;;;10.50;99.90;;;;;;5102512;28;20465;-68
2022/05/01 06:16:09;;;;;;;1999.90;999.90;;;10.40;99.90;;;;;;5122329;22;20494;-72
2022/05/01 06:18:36;;;;;;;1999.90;999.90;;;10.60;99.90;;;;;;5070008;28;20504;-69
2022/05/01 06:21:03;;;;;;;1999.90;999.90;;;10.60;99.90;;;;;;5057209;28;20461;-70
2022/05/01 06:23:31;;;;;;;1999.90;999.90;;;10.60;99.90;;;;;;5064655;28;20464;-70
2022/05/01 06:25:58;;;;;;;1999.90;999.90;;;10.60;99.90;;;;;;5072260;28;20462;-70
2022/05/01 06:28:24;;;;;;;1999.90;999.90;;;10.60;99.90;;;;;;5056298;28;20817;-70
2022/05/01 06:30:52;;;;;;;1999.90;999.90;;;10.60;99.90;;;;;;5058182;28;20745;-69
2022/05/01 06:33:22;;;;;;;1999.90;999.90;;;10.50;99.90;;;;;;5075817;28;20960;-71
2022/05/01 06:35:50;;;;;;;1999.90;999.90;;;10.50;99.90;;;;;;5061917;28;21028;-70
2022/05/01 06:38:17;;;;;;;1999.90;999.90;;;10.40;99.90;;;;;;5075705;28;20441;-69
2022/05/01 06:40:46;;;;;;;1999.90;999.90;;;10.40;99.90;;;;;;5070698;28;20469;-69
2022/05/01 06:43:14;;;;;;;1999.90;999.90;;;10.40;99.90;;;;;;5076539;28;20511;-71
2022/05/01 06:45:41;;;;;;;1999.90;999.90;;;10.50;99.90;;;;;;5072424;28;20801;-71
2022/05/01 06:48:09;;;;;;;1999.90;999.90;;;10.50;99.90;;;;;;5074013;28;20541;-70
2022/05/01 06:50:35;;;;;;;1999.90;999.90;;;10.40;99.90;;;;;;5072235;28;20485;-70
2022/05/01 06:53:02;;;;;;;1999.90;999.90;;;10.40;99.90;;;;;;5063749;28;20466;-72
2022/05/01 06:55:29;;;;;;;1999.90;999.90;;;10.40;99.90;;;;;;5058408;28;20512;-72
2022/05/01 06:57:57;;;;;;;1999.90;999.90;;;10.30;99.90;;;;;;5055603;28;20827;-72
2022/05/01 07:00:24;;;;;;;1999.90;999.90;;;10.40;99.90;;;;;;5057424;28;20454;-72
2022/05/01 07:02:53;;;;;;;1999.90;999.90;;;10.40;99.90;;;;;;5056413;28;20446;-71
2022/05/01 07:05:20;;;;;;;1999.90;999.90;;;10.40;99.90;;;;;;5056677;28;20938;-70
2022/05/01 07:07:48;;;;;;;1999.90;999.90;;;10.40;99.90;;;;;;5041603;28;20973;-71
2022/05/01 07:10:15;;;;;;;1999.90;999.90;;;10.50;99.90;;;;;;5055650;28;20489;-72
2022/05/01 07:12:42;;;;;;;1999.90;999.90;;;10.40;99.90;;;;;;5056668;28;20508;-71
2022/05/01 07:15:11;;;;;;;1999.90;999.90;;;10.50;99.90;;;;;;5056796;28;20470;-70
2022/05/01 07:17:38;;;;;;;1999.90;999.90;;;10.50;99.90;;;;;;5059295;28;21021;-71
2022/05/01 07:20:07;;;;;;;1999.90;999.90;;;10.50;99.90;;;;;;5059762;28;20453;-70
2022/05/01 07:22:33;;;;;;;1999.90;999.90;;;10.50;99.90;;;;;;5067154;28;20469;-72
2022/05/01 07:25:00;;;;;;;1999.90;999.90;;;10.50;99.90;;;;;;5070712;28;20469;-72
2022/05/01 07:27:27;;;;;;;1999.90;999.90;;;10.60;99.90;;;;;;5059945;28;20481;-72
2022/05/01 07:29:53;;;;;;;1999.90;999.90;;;10.60;99.90;;;;;;5067733;28;20481;-73
2022/05/01 07:32:21;;;;;;;1999.90;999.90;;;10.60;99.90;;;;;;5064524;28;20461;-72
2022/05/01 07:34:48;;;;;;;1999.90;999.90;;;10.70;99.90;;;;;;5065651;28;20461;-74
2022/05/01 07:37:16;;;;;;;1999.90;999.90;;;10.80;99.90;;;;;;5066459;28;20473;-72
2022/05/01 07:39:43;;;;;;;1999.90;999.90;;;10.80;99.90;;;;;;5073179;28;20453;-72
2022/05/01 07:42:11;;;;;;;1999.90;999.90;;;10.90;99.90;;;;;;5060121;28;20869;-72
2022/05/01 07:44:37;;;;;;;1999.90;999.90;;;10.90;99.90;;;;;;5066803;28;20537;-73
2022/05/01 07:47:04;;;;;;;1999.90;999.90;;;11.10;99.90;;;;;;5060786;28;20476;-71
2022/05/01 07:49:32;;;;;;;1999.90;999.90;;;10.90;99.90;;;;;;5067676;28;21509;-72
2022/05/01 07:51:59;;;;;;;1999.90;999.90;;;11.00;99.90;;;;;;5067556;28;20462;-71
2022/05/01 07:54:26;;;;;;;1999.90;999.90;;;11.10;99.90;;;;;;5052904;28;20535;-72
2022/05/01 07:56:52;;;;;;;1999.90;999.90;;;11.10;99.90;;;;;;5063755;28;20482;-72
2022/05/01 07:59:19;;;;;;;1999.90;999.90;;;11.30;99.90;;;;;;5063993;28;20511;-71
2022/05/01 08:01:46;;;;;;;1999.90;999.90;;;11.40;99.90;;;;;;5069364;28;20542;-73
2022/05/01 08:04:30;;;;;;;1999.90;999.90;;;11.40;99.90;;;;;;5068560;28;20464;-73
2022/05/01 08:07:04;;;;;;;1999.90;999.90;;;11.40;99.90;;;;;;5063369;28;20855;-70
2022/05/01 08:09:31;;;;;;;1999.90;999.90;;;11.60;99.90;;;;;;5061361;28;20528;-73
2022/05/01 08:11:58;;;;;;;1999.90;999.90;;;11.40;99.90;;;;;;5074115;28;20494;-70
2022/05/01 08:14:25;;;;;;;1999.90;999.90;;;11.60;99.90;;;;;;5061052;28;20446;-73
2022/05/01 08:16:52;;;;;;;1999.90;999.90;;;11.80;99.90;;;;;;5051853;28;21035;-72
2022/05/01 08:22:06;;;;;;;1999.90;999.90;;;12.10;99.90;;;;;;5065788;28;20438;-72
2022/05/01 08:24:33;;;;;;;1999.90;999.90;;;12.70;99.90;;;;;;5073168;28;20450;-71
2022/05/01 08:27:05;;;;;;;1999.90;999.90;;;13.00;99.90;;;;;;5066251;28;20535;-73
2022/05/01 08:29:32;;;;;;;1999.90;999.90;;;13.00;99.90;;;;;;5053568;28;20462;-72
2022/05/01 08:31:59;;;;;;;1999.90;999.90;;;13.20;99.90;;;;;;5069185;28;20468;-72
2022/05/01 08:34:26;;;;;;;1999.90;999.90;;;13.30;99.90;;;;;;5067651;28;20504;-71
2022/05/01 08:36:53;;;;;;;1999.90;999.90;;;13.30;99.90;;;;;;5067253;28;20508;-72
2022/05/01 08:39:21;;;;;;;1999.90;999.90;;;13.00;99.90;;;;;;5054445;28;20466;-72
2022/05/01 08:41:48;;;;;;;1999.90;999.90;;;13.10;99.90;;;;;;5061884;28;20462;-72
2022/05/01 08:44:16;;;;;;;1999.90;999.90;;;13.10;99.90;;;;;;5067260;28;20465;-72
2022/05/01 08:46:57;;;;;;;1999.90;999.90;;;13.20;99.90;;;;;;5066893;28;20485;-73
2022/05/01 08:49:25;;;;;;;1999.90;999.90;;;13.40;99.90;;;;;;5059588;28;20545;-73
2022/05/01 08:51:53;;;;;;;1999.90;999.90;;;13.40;99.90;;;;;;5067085;28;20484;-71
2022/05/01 08:54:22;;;;;;;1999.90;999.90;;;13.50;99.90;;;;;;5066087;28;20847;-74
2022/05/01 08:56:49;;;;;;;1999.90;999.90;;;13.70;99.90;;;;;;5061943;28;20486;-72
2022/05/01 08:59:17;;;;;;;1999.90;999.90;;;13.90;99.90;;;;;;5068202;28;20496;-72
2022/05/01 09:01:46;;;;;;;1999.90;999.90;;;14.10;99.90;;;;;;5067185;28;20458;-72
2022/05/01 09:04:14;;;;;;;1999.90;999.90;;;13.90;99.90;;;;;;5068224;28;20465;-71
2022/05/01 09:06:44;;;;;;;1999.90;999.90;;;13.70;99.90;;;;;;5064748;28;20474;-72
2022/05/01 09:09:12;;;;;;;1999.90;999.90;;;13.30;99.90;;;;;;5066930;28;20502;-73
2022/05/01 09:14:26;;;;;;;1999.90;999.90;;;13.70;99.90;;;;;;5058271;28;20886;-72
2022/05/01 09:17:10;;;;;;;1999.90;999.90;;;13.80;99.90;;;;;;5067889;28;20928;-73
2022/05/01 09:19:37;;;;;;;1999.90;999.90;;;14.10;99.90;;;;;;5059361;28;20466;-73
2022/05/01 09:22:04;;;;;;;1999.90;999.90;;;14.50;99.90;;;;;;5069085;28;20461;-75
2022/05/01 09:24:31;;;;;;;1999.90;999.90;;;14.60;99.90;;;;;;5062837;28;20512;-72
2022/05/01 09:27:00;;;;;;;1999.90;999.90;;;14.20;99.90;;;;;;5070514;28;21135;-71
2022/05/01 09:29:32;;;;;;;1999.90;999.90;;;13.90;99.90;;;;;;5062044;28;20461;-70
2022/05/01 09:32:00;;;;;;;1999.90;999.90;;;13.80;99.90;;;;;;5057486;28;20512;-73
2022/05/01 09:34:29;;;;;;;1999.90;999.90;;;14.10;99.90;;;;;;5062007;28;20461;-73
2022/05/01 09:36:57;;;;;;;1999.90;999.90;;;14.20;99.90;;;;;;5048713;28;20486;-71
2022/05/01 09:39:26;;;;;;;1999.90;999.90;;;14.30;99.90;;;;;;5059360;28;20466;-71
2022/05/01 09:41:54;;;;;;;1999.90;999.90;;;14.40;99.90;;;;;;5070593;28;20496;-71
2022/05/01 09:44:23;;;;;;;1999.90;999.90;;;14.60;99.90;;;;;;5062440;28;20461;-71
2022/05/01 09:46:51;;;;;;;1999.90;999.90;;;14.50;99.90;;;;;;5060228;28;21034;-71
2022/05/01 09:49:19;;;;;;;1999.90;999.90;;;14.40;99.90;;;;;;5063207;28;20515;-73
2022/05/01 09:51:54;;;;;;;1999.90;999.90;;;14.20;99.90;;;;;;5068528;28;20534;-72
2022/05/01 09:54:22;;;;;;;1999.90;999.90;;;14.20;99.90;;;;;;5060371;28;20470;-71
2022/05/01 09:56:50;;;;;;;1999.90;999.90;;;14.00;99.90;;;;;;5060751;28;20490;-72
2022/05/01 09:59:18;;;;;;;1999.90;999.90;;;13.80;99.90;;;;;;5053176;28;20508;-72
2022/05/01 10:01:57;;;;;;;1999.90;999.90;;;14.10;99.90;;;;;;5057767;28;20485;-73
2022/05/01 10:04:25;;;;;;;1999.90;999.90;;;14.40;99.90;;;;;;5065269;28;20515;-73
2022/05/01 10:06:53;;;;;;;1999.90;999.90;;;14.70;99.90;;;;;;5069024;28;20837;-73
2022/05/01 10:09:20;;;;;;;1999.90;999.90;;;14.80;99.90;;;;;;5063034;28;20549;-71
2022/05/01 10:11:49;;;;;;;1999.90;999.90;;;15.20;99.90;;;;;;5064977;28;20486;-71
2022/05/01 10:14:19;;;;;;;1999.90;999.90;;;15.50;99.00;;;;;;5059293;28;21000;-70
2022/05/01 10:16:46;;;;;;;1999.90;999.90;;;15.80;98.70;;;;;;5064832;28;20530;-71
2022/05/01 10:19:15;;;;;;;1999.90;999.90;;;15.70;98.40;;;;;;5074715;28;20449;-71
2022/05/01 10:21:46;;;;;;;1999.90;999.90;;;16.00;98.60;;;;;;5061547;28;20938;-71
2022/05/01 10:24:13;;;;;;;1999.90;999.90;;;15.90;97.40;;;;;;5054588;28;20533;-73
2022/05/01 10:26:47;;;;;;;1999.90;999.90;;;15.10;98.10;;;;;;5054582;28;20466;-73
2022/05/01 10:29:36;;;;;;;1999.90;999.90;;;15.30;98.30;;;;;;5055424;28;20933;-75
2022/05/01 10:32:37;;;;;;;1999.90;999.90;;;15.20;98.00;;;;;;5054995;28;20466;-73
2022/05/01 10:35:26;;;;;;;1999.90;999.90;;;15.40;98.00;;;;;;5073862;28;20844;-73
2022/05/01 10:38:09;;;;;;;1999.90;999.90;;;15.50;98.10;;;;;;5054094;28;20542;-71
2022/05/01 10:40:41;;;;;;;1999.90;999.90;;;16.00;97.30;;;;;;5054180;28;20992;-71
2022/05/01 10:43:26;;;;;;;1999.90;999.90;;;16.10;97.60;;;;;;5054117;28;20426;-71
2022/05/01 10:45:53;;;;;;;1999.90;999.90;;;16.40;97.00;;;;;;5056546;28;20526;-71
2022/05/01 10:48:31;;;;;;;1999.90;999.90;;;16.70;96.80;;;;;;5070119;28;20457;-68
2022/05/01 10:51:55;;;;;;;1999.90;999.90;;;16.80;95.50;;;;;;5060679;28;22313;-72
2022/05/01 10:54:37;;;;;;;1999.90;999.90;;;16.80;96.30;;;;;;4994856;28;20460;-72
2022/05/01 10:57:15;;;;;;;1999.90;999.90;;;16.70;96.10;;;;;;4999549;28;20495;-71
2022/05/01 10:59:46;;;;;;;1999.90;999.90;;;16.80;95.80;;;;;;5041599;28;20470;-72
2022/05/01 11:02:25;;;;;;;1999.90;999.90;;;16.70;95.20;;;;;;5067755;28;20524;-71
2022/05/01 11:04:53;;;;;;;1999.90;999.90;;;16.10;96.30;;;;;;5061060;28;20544;-70
2022/05/01 11:07:23;;;;;;;1999.90;999.90;;;16.10;96.30;;;;;;5069401;28;20540;-71
2022/05/01 11:09:50;;;;;;;1999.90;999.90;;;15.90;96.50;;;;;;5064197;28;20465;-71
2022/05/01 11:12:19;;;;;;;1999.90;999.90;;;15.90;97.10;;;;;;5054427;28;20486;-71
2022/05/01 11:14:52;;;;;;;1999.90;999.90;;;15.90;97.00;;;;;;5062237;28;20469;-68
2022/05/01 11:17:30;;;;;;;1999.90;999.90;;;16.10;97.10;;;;;;5067063;28;21082;-72
2022/05/01 11:20:08;;;;;;;1999.90;999.90;;;16.40;97.50;;;;;;5057389;28;20511;-72
2022/05/01 11:22:36;;;;;;;1999.90;999.90;;;16.70;96.70;;;;;;5058306;28;20453;-71
2022/05/01 11:25:03;;;;;;;1999.90;999.90;;;16.70;95.80;;;;;;5056431;28;20462;-70
2022/05/01 11:27:47;;;;;;;1999.90;999.90;;;16.50;96.50;;;;;;5060160;28;20482;-72
2022/05/01 11:30:22;;;;;;;1999.90;999.90;;;15.90;97.20;;;;;;5059811;28;20507;-74
2022/05/01 11:32:49;;;;;;;1999.90;999.90;;;15.90;97.40;;;;;;5057741;28;20879;-74
2022/05/01 11:35:16;;;;;;;1999.90;999.90;;;16.10;96.90;;;;;;5053970;28;20458;-73
2022/05/01 11:38:09;;;;;;;1999.90;999.90;;;16.10;96.90;;;;;;5060905;28;20478;-73
2022/05/01 11:40:36;;;;;;;1999.90;999.90;;;16.30;97.20;;;;;;5065436;28;20465;-71
2022/05/01 11:43:17;;;;;;;1999.90;999.90;;;16.60;97.40;;;;;;5066810;28;20453;-71
2022/05/01 11:45:45;;;;;;;1999.90;999.90;;;17.00;96.00;;;;;;5064393;28;20462;-71
2022/05/01 11:48:12;;;;;;;1999.90;999.90;;;17.10;96.40;;;;;;5061124;28;20460;-71
2022/05/01 11:50:40;;;;;;;1999.90;999.90;;;17.20;96.40;;;;;;5062083;28;20457;-73
2022/05/01 11:53:18;;;;;;;1999.90;999.90;;;17.40;95.30;;;;;;5064704;28;20484;-73
2022/05/01 12:04:24;;;;;;;1999.90;999.90;;;16.00;98.40;;;;;;5057066;28;20518;-71
2022/05/01 12:07:01;;;;;;;1999.90;999.90;;;16.00;98.50;;;;;;5062553;28;20982;-74
2022/05/01 12:09:30;;;;;;;1999.90;999.90;;;16.30;99.00;;;;;;5072193;28;20449;-71
2022/05/01 12:11:57;;;;;;;1999.90;999.90;;;16.70;98.10;;;;;;5062717;28;20481;-72
2022/05/01 12:14:24;;;;;;;1999.90;999.90;;;17.10;97.00;;;;;;5062337;28;20468;-71
2022/05/01 12:16:51;;;;;;;1999.90;999.90;;;17.00;97.30;;;;;;5090877;22;20495;-67
2022/05/01 12:19:17;;;;;;;1999.90;999.90;;;16.80;97.00;;;;;;5092105;28;20511;-67
2022/05/01 12:21:44;;;;;;;1999.90;999.90;;;16.50;97.50;;;;;;5101172;28;20498;-67
2022/05/01 12:24:12;;;;;;;1999.90;999.90;;;16.20;97.70;;;;;;5103798;28;20435;-67
2022/05/01 12:26:49;;;;;;;1999.90;999.90;;;16.20;98.70;;;;;;5103400;28;20555;-67
2022/05/01 12:29:16;;;;;;;1999.90;999.90;;;16.30;99.20;;;;;;5071407;28;20536;-68
2022/05/01 12:31:59;;;;;;;1999.90;999.90;;;16.20;98.70;;;;;;5081684;28;20481;-67